Time;durP1;ratioP1;P1;durP2;ratioP2;P2;SDS_P1;SDS_P2;PMS_P1;PMS_P2;Temp;Humidity;BMP_temperature;BMP_pressure;BME280_temperature;BME280_humidity;BME280_pressure;Samples;Min_cycle;Max_cycle;Signal;HPM_P1;HPM_P2
2022/04/27 00:00:36;;;;;;;5.32;3.65;;;;;;;10.73;50.26;101397.09;7398689;19;20015;-67
2022/04/27 00:03:05;;;;;;;3.33;2.95;;;;;;;10.72;50.55;101391.84;7397298;19;20025;-66
2022/04/27 00:05:34;;;;;;;5.53;3.58;;;;;;;10.70;50.57;101388.38;7396106;19;20022;-66
2022/04/27 00:08:02;;;;;;;5.32;3.50;;;;;;;10.72;50.72;101397.09;7395602;19;20011;-66
2022/04/27 00:10:31;;;;;;;6.18;3.55;;;;;;;10.67;50.77;101389.28;7395908;19;20035;-66
2022/04/27 00:12:59;;;;;;;4.68;3.30;;;;;;;10.71;50.83;101390.13;7397751;19;20073;-67
2022/04/27 00:15:29;;;;;;;4.45;3.20;;;;;;;10.72;50.81;101395.34;7393257;19;20022;-66
2022/04/27 00:17:57;;;;;;;3.75;3.15;;;;;;;10.74;50.94;101397.94;7395379;19;20607;-67
2022/04/27 00:20:26;;;;;;;4.78;3.55;;;;;;;10.75;50.99;101397.06;7397710;19;20021;-67
2022/04/27 00:22:54;;;;;;;4.72;3.47;;;;;;;10.74;50.98;101393.56;7396895;19;20089;-67
2022/04/27 00:25:23;;;;;;;4.22;3.60;;;;;;;10.76;51.08;101389.16;7395461;19;20419;-67
2022/04/27 00:27:51;;;;;;;4.25;3.45;;;;;;;10.76;51.01;101396.19;7395347;19;20029;-67
2022/04/27 00:30:19;;;;;;;7.32;3.22;;;;;;;10.76;51.13;101398.81;7397271;19;20018;-67
2022/04/27 00:32:50;;;;;;;3.63;3.30;;;;;;;10.75;51.25;101402.31;7397135;19;20018;-67
2022/04/27 00:35:18;;;;;;;3.70;3.20;;;;;;;10.75;51.13;101395.31;7395644;19;20082;-67
2022/04/27 00:37:46;;;;;;;3.72;3.33;;;;;;;10.74;51.27;101392.69;7395894;19;20018;-67
2022/04/27 00:40:15;;;;;;;5.22;3.50;;;;;;;10.74;51.27;101393.56;7395127;19;20078;-67
2022/04/27 00:42:43;;;;;;;3.72;3.00;;;;;;;10.74;51.31;101395.31;7396484;19;20018;-67
2022/04/27 00:45:11;;;;;;;5.75;3.95;;;;;;;10.74;51.40;101392.69;7394816;19;20082;-67
2022/04/27 00:47:46;;;;;;;6.45;3.78;;;;;;;10.74;51.37;101396.19;7396509;19;20066;-67
2022/04/27 00:50:17;;;;;;;8.73;3.22;;;;;;;10.74;51.48;101396.19;7397306;19;20018;-67
2022/04/27 00:52:45;;;;;;;5.50;4.05;;;;;;;10.73;51.44;101391.84;7395455;19;20018;-67
2022/04/27 00:55:14;;;;;;;7.22;3.55;;;;;;;10.72;51.51;101392.72;7396156;19;20019;-67
2022/04/27 00:57:46;;;;;;;5.05;3.10;;;;;;;10.72;51.66;101402.34;7397713;19;20070;-67
2022/04/27 01:00:15;;;;;;;4.47;3.42;;;;;;;10.71;51.52;101398.00;7396577;19;20038;-67
2022/04/27 01:02:43;;;;;;;4.57;3.20;;;;;;;10.69;51.76;101405.88;7394047;19;20439;-67
2022/04/27 01:05:12;;;;;;;6.20;3.38;;;;;;;10.67;51.89;101406.78;7394663;19;20084;-67
2022/04/27 01:07:44;;;;;;;4.32;3.40;;;;;;;10.65;51.93;101412.03;7393437;19;20504;-67
2022/04/27 01:10:12;;;;;;;5.57;3.13;;;;;;;10.63;52.08;101412.94;7393947;19;20435;-66
2022/04/27 01:12:44;;;;;;;5.25;3.40;;;;;;;10.60;52.28;101411.22;7395426;19;20419;-66
2022/04/27 01:15:13;;;;;;;4.30;3.70;;;;;;;10.57;52.30;101411.25;7394089;19;20074;-67
2022/04/27 01:17:41;;;;;;;4.80;3.28;;;;;;;10.52;52.42;101416.56;7394133;19;20022;-67
2022/04/27 01:20:10;;;;;;;5.20;3.45;;;;;;;10.47;52.73;101423.59;7395705;19;20039;-66
2022/04/27 01:22:41;;;;;;;4.20;3.65;;;;;;;10.42;53.30;101417.53;7395399;19;20023;-67
2022/04/27 01:25:10;;;;;;;14.15;9.07;;;;;;;10.35;53.32;101431.56;7394324;19;20039;-67
2022/04/27 01:27:50;;;;;;;8.05;5.75;;;;;;;10.27;53.57;101435.16;7393068;19;20023;-67
2022/04/27 01:30:18;;;;;;;7.43;4.95;;;;;;;10.20;53.79;101428.22;7394084;19;20046;-66
2022/04/27 01:32:46;;;;;;;6.00;5.30;;;;;;;10.11;54.05;101434.41;7395338;19;20022;-67
2022/04/27 01:35:14;;;;;;;4.88;4.20;;;;;;;10.07;54.36;101442.31;7393519;19;20454;-67
2022/04/27 01:40:25;;;;;;;8.60;5.68;;;;;;;9.91;55.01;101445.06;7395636;19;20019;-67
2022/04/27 01:42:53;;;;;;;11.25;9.30;;;;;;;9.82;55.38;101460.84;7394818;19;20019;-66
2022/04/27 01:45:22;;;;;;;7.93;6.15;;;;;;;9.70;55.57;101461.78;7393459;19;20035;-66
2022/04/27 01:47:50;;;;;;;7.35;5.93;;;;;;;9.62;55.54;101455.75;7393212;19;20082;-66
2022/04/27 01:50:19;;;;;;;4.65;4.15;;;;;;;9.56;55.79;101458.41;7394822;19;20018;-66
2022/04/27 01:55:30;;;;;;;4.03;3.10;;;;;;;9.41;56.49;101456.75;7393219;19;20017;-66
2022/04/27 01:57:58;;;;;;;5.20;4.13;;;;;;;9.33;56.63;101463.78;7392874;19;20031;-66
2022/04/27 02:00:27;;;;;;;7.75;3.70;;;;;;;9.22;56.77;101464.69;7394614;19;20054;-66
2022/04/27 02:02:55;;;;;;;6.18;3.35;;;;;;;9.15;57.10;101463.00;7392657;19;20022;-66
2022/04/27 02:05:23;;;;;;;7.25;3.55;;;;;;;9.08;57.32;101466.50;7392825;19;20070;-66
2022/04/27 02:07:54;;;;;;;6.03;3.38;;;;;;;9.01;57.39;101467.38;7393329;19;20022;-66
2022/04/27 02:10:22;;;;;;;5.18;3.40;;;;;;;8.95;57.71;101466.53;7392803;19;20028;-66
2022/04/27 02:12:51;;;;;;;5.38;3.88;;;;;;;8.89;58.03;101463.09;7392791;19;20094;-66
2022/04/27 02:15:19;;;;;;;4.53;3.88;;;;;;;8.82;58.04;101471.81;7392474;19;20022;-66
2022/04/27 02:17:48;;;;;;;6.65;3.90;;;;;;;8.74;58.38;101469.22;7393670;19;20508;-66
2022/04/27 02:20:18;;;;;;;3.90;3.20;;;;;;;8.67;58.54;101475.34;7394066;19;20023;-66
2022/04/27 02:22:46;;;;;;;4.75;3.83;;;;;;;8.59;58.62;101475.34;7392121;19;20026;-66
2022/04/27 02:25:17;;;;;;;4.43;3.70;;;;;;;8.52;58.70;101471.88;7391728;19;20019;-66
2022/04/27 02:27:45;;;;;;;4.80;4.22;;;;;;;8.45;58.76;101475.34;7394266;19;20039;-66
2022/04/27 02:30:14;;;;;;;5.63;4.15;;;;;;;8.38;58.86;101474.50;7393776;19;20014;-66
2022/04/27 02:32:42;;;;;;;5.63;3.88;;;;;;;8.32;59.22;101479.72;7391803;19;20105;-66
2022/04/27 02:35:11;;;;;;;5.40;3.80;;;;;;;8.24;59.17;101477.13;7391996;19;20074;-66
2022/04/27 02:37:40;;;;;;;4.88;3.83;;;;;;;8.16;59.55;101476.22;7390940;19;20469;-66
2022/04/27 02:40:10;;;;;;;4.60;3.88;;;;;;;8.11;59.52;101478.84;7398659;19;20018;-66
2022/04/27 02:42:41;;;;;;;4.15;3.58;;;;;;;8.04;59.50;101476.22;7398825;19;20014;-66
2022/04/27 02:45:10;;;;;;;5.70;4.25;;;;;;;7.97;59.85;101483.19;7398457;19;20081;-66
2022/04/27 02:47:38;;;;;;;5.28;4.00;;;;;;;7.91;59.83;101486.69;7400732;19;20022;-66
2022/04/27 02:52:49;;;;;;;4.55;4.15;;;;;;;7.75;60.43;101487.53;7400740;19;20025;-66
2022/04/27 02:55:18;;;;;;;5.30;4.32;;;;;;;7.69;60.36;101490.13;7398237;19;20018;-66
2022/04/27 02:57:48;;;;;;;7.05;4.10;;;;;;;7.62;60.66;101492.72;7399975;19;20498;-66
2022/04/27 03:00:17;;;;;;;5.50;4.40;;;;;;;7.57;60.84;101499.66;7400888;19;20086;-66
2022/04/27 03:02:45;;;;;;;6.25;4.47;;;;;;;7.53;60.83;101500.50;7397702;19;20094;-66
2022/04/27 03:05:13;;;;;;;7.32;4.68;;;;;;;7.48;61.10;101503.13;7397320;19;20096;-66
2022/04/27 03:07:41;;;;;;;5.70;4.68;;;;;;;7.46;61.34;101506.59;7398789;19;20407;-66
2022/04/27 03:10:11;;;;;;;5.50;4.30;;;;;;;7.41;61.30;101508.31;7399634;19;20508;-66
2022/04/27 03:12:39;;;;;;;6.47;4.90;;;;;;;7.38;61.66;101518.75;7397135;19;20465;-67
2022/04/27 03:15:10;;;;;;;6.25;4.50;;;;;;;7.33;62.02;101514.38;7397535;19;20513;-67
2022/04/27 03:17:38;;;;;;;7.20;5.10;;;;;;;7.26;62.16;101523.03;7400120;19;20019;-67
2022/04/27 03:20:07;;;;;;;7.22;4.57;;;;;;;7.21;62.57;101516.94;7399255;19;20035;-67
2022/04/27 03:22:36;;;;;;;6.78;5.68;;;;;;;7.14;62.75;101525.59;7398895;19;20497;-66
2022/04/27 03:25:04;;;;;;;7.90;5.28;;;;;;;7.09;63.11;101529.91;7397212;19;20039;-67
2022/04/27 03:27:32;;;;;;;6.85;5.47;;;;;;;7.03;63.06;101529.88;7399091;19;20027;-67
2022/04/27 03:30:00;;;;;;;5.90;4.72;;;;;;;6.98;63.47;101540.31;7396725;19;20019;-67
2022/04/27 03:32:31;;;;;;;6.93;5.28;;;;;;;6.92;63.46;101543.72;7398816;19;20022;-66
2022/04/27 03:34:59;;;;;;;7.72;5.07;;;;;;;6.87;63.74;101539.38;7397144;19;20018;-66
2022/04/27 03:37:27;;;;;;;6.25;4.88;;;;;;;6.82;63.98;101549.75;7396213;19;20116;-66
2022/04/27 03:39:55;;;;;;;6.35;5.00;;;;;;;6.77;64.29;101546.25;7396081;19;20018;-67
2022/04/27 03:42:23;;;;;;;6.93;5.70;;;;;;;6.73;64.50;101547.09;7398397;19;20019;-67
2022/04/27 03:44:51;;;;;;;7.78;5.57;;;;;;;6.68;64.88;101547.94;7396214;19;20045;-67
2022/04/27 03:47:19;;;;;;;7.88;5.40;;;;;;;6.66;65.05;101549.66;7397981;19;20371;-67
2022/04/27 03:49:51;;;;;;;7.03;4.93;;;;;;;6.65;65.34;101554.88;7395586;19;20031;-67
2022/04/27 03:52:20;;;;;;;8.07;5.22;;;;;;;6.62;65.64;101558.34;7398328;19;20038;-67
2022/04/27 03:54:48;;;;;;;7.18;5.60;;;;;;;6.60;65.65;101557.44;7396085;19;20027;-67
2022/04/27 03:57:16;;;;;;;6.78;5.95;;;;;;;6.59;65.68;101568.72;7398282;19;20015;-67
2022/04/27 03:59:45;;;;;;;8.15;5.47;;;;;;;6.57;65.85;101567.84;7397925;19;20018;-67
2022/04/27 04:02:13;;;;;;;6.40;5.55;;;;;;;6.58;66.04;101577.41;7397981;19;20011;-67
2022/04/27 04:04:41;;;;;;;6.78;5.57;;;;;;;6.57;66.05;101573.06;7395322;19;20011;-67
2022/04/27 04:07:12;;;;;;;9.60;6.93;;;;;;;6.59;65.90;101567.84;7397423;19;20430;-67
2022/04/27 04:09:40;;;;;;;9.43;6.45;;;;;;;6.62;65.93;101578.28;7395649;19;20039;-68
2022/04/27 04:12:10;;;;;;;9.45;6.93;;;;;;;6.65;66.18;101570.50;7397025;19;20485;-67
2022/04/27 04:14:38;;;;;;;8.93;6.10;;;;;;;6.67;66.64;101576.59;7395421;19;20040;-66
2022/04/27 04:17:06;;;;;;;8.88;6.10;;;;;;;6.69;66.60;101587.94;7397516;19;20026;-67
2022/04/27 04:19:35;;;;;;;10.13;6.38;;;;;;;6.69;66.76;101578.34;7395172;19;20019;-67
2022/04/27 04:22:03;;;;;;;8.63;5.97;;;;;;;6.73;66.27;101596.66;7395625;19;20022;-67
2022/04/27 04:24:34;;;;;;;8.40;6.32;;;;;;;6.76;66.33;101587.13;7394391;19;20485;-67
2022/04/27 04:29:43;;;;;;;9.05;6.63;;;;;;;6.86;66.26;101582.81;7396558;19;20478;-66
2022/04/27 04:32:11;;;;;;;9.10;6.05;;;;;;;6.91;66.32;101586.34;7394598;19;20018;-66
2022/04/27 04:34:39;;;;;;;9.60;6.35;;;;;;;6.97;66.31;101594.22;7395303;19;20019;-66
2022/04/27 04:37:08;;;;;;;8.20;6.05;;;;;;;7.04;66.37;101592.53;7394043;19;20036;-66
2022/04/27 04:39:38;;;;;;;8.65;6.25;;;;;;;7.07;66.35;101596.91;7396434;19;20025;-68
2022/04/27 04:42:08;;;;;;;9.05;6.22;;;;;;;7.10;66.15;101600.41;7394428;19;20481;-67
2022/04/27 04:44:36;;;;;;;7.88;5.93;;;;;;;7.12;65.98;101606.50;7394936;19;20363;-66
2022/04/27 04:47:05;;;;;;;11.02;6.78;;;;;;;7.14;66.04;101611.72;7394903;19;20019;-67
2022/04/27 04:49:33;;;;;;;8.30;6.57;;;;;;;7.17;65.85;101620.44;7396575;19;20019;-67
2022/04/27 04:52:01;;;;;;;10.43;6.43;;;;;;;7.17;65.99;101609.13;7395215;19;20041;-67
2022/04/27 04:54:29;;;;;;;8.82;6.65;;;;;;;7.22;66.07;101617.88;7394366;19;20027;-66
2022/04/27 04:57:00;;;;;;;8.50;5.97;;;;;;;7.22;65.87;101623.09;7395173;19;20022;-66
2022/04/27 04:59:28;;;;;;;17.88;7.05;;;;;;;7.28;65.83;101630.94;7396295;19;20018;-66
2022/04/27 05:01:57;;;;;;;12.45;6.70;;;;;;;7.30;65.71;101637.06;7391928;19;20425;-68
2022/04/27 05:04:25;;;;;;;9.70;6.20;;;;;;;7.32;65.71;101640.53;7394679;19;20038;-66
2022/04/27 05:06:53;;;;;;;10.27;6.88;;;;;;;7.33;65.69;101644.91;7393113;19;20035;-66
2022/04/27 05:09:22;;;;;;;91.78;43.03;;;;;;;7.34;65.68;101643.16;7391739;19;20017;-66
2022/04/27 05:12:21;;;;;;;18.95;10.57;;;;;;;7.35;65.97;101655.34;7394539;19;20014;-66
2022/04/27 05:14:49;;;;;;;9.73;7.20;;;;;;;7.33;65.70;101660.56;7393948;19;20039;-66
2022/04/27 05:17:17;;;;;;;10.07;7.07;;;;;;;7.31;65.87;101664.91;7394322;19;20018;-66
2022/04/27 05:19:45;;;;;;;9.93;7.60;;;;;;;7.29;65.78;101666.66;7391943;19;20016;-66
2022/04/27 05:22:13;;;;;;;11.57;6.68;;;;;;;7.30;66.22;101664.88;7393973;19;20014;-65
2022/04/27 05:24:42;;;;;;;8.07;7.20;;;;;;;7.29;65.71;101671.88;7392359;19;20477;-67
2022/04/27 05:27:10;;;;;;;19.02;8.57;;;;;;;7.30;66.01;101670.13;7394304;19;20484;-65
2022/04/27 05:32:21;;;;;;;16.70;8.68;;;;;;;7.32;65.86;101673.63;7394512;19;20018;-66
2022/04/27 05:34:49;;;;;;;16.45;7.18;;;;;;;7.30;65.93;101683.16;7392844;19;20044;-66
2022/04/27 05:37:18;;;;;;;10.45;7.18;;;;;;;7.25;65.84;101682.25;7392445;19;20367;-66
2022/04/27 05:39:46;;;;;;;10.45;7.40;;;;;;;7.20;65.94;101679.59;7392374;19;20015;-66
2022/04/27 05:42:14;;;;;;;7.50;6.65;;;;;;;7.15;66.30;101681.31;7392325;19;20018;-67
2022/04/27 05:44:45;;;;;;;8.07;6.70;;;;;;;7.11;66.35;101682.16;7392847;19;20498;-67
2022/04/27 05:47:13;;;;;;;10.32;7.05;;;;;;;7.11;66.65;101687.38;7392626;19;20021;-67
2022/04/27 05:49:41;;;;;;;9.40;7.47;;;;;;;7.12;66.75;101689.13;7391781;19;20392;-67
2022/04/27 05:52:10;;;;;;;10.50;6.95;;;;;;;7.14;66.53;101693.50;7393947;19;20022;-67
2022/04/27 05:54:38;;;;;;;13.68;7.13;;;;;;;7.19;66.59;101698.78;7392947;19;20015;-67
2022/04/27 05:57:06;;;;;;;9.35;7.35;;;;;;;7.24;66.58;101698.78;7392457;19;20027;-66
2022/04/27 05:59:34;;;;;;;12.68;7.95;;;;;;;7.28;66.67;101704.03;7392370;19;20019;-67
2022/04/27 06:02:05;;;;;;;11.15;8.15;;;;;;;7.32;66.61;101708.41;7394104;19;20027;-67
2022/04/27 06:04:33;;;;;;;15.00;7.82;;;;;;;7.39;66.30;101708.47;7392518;19;20023;-67
2022/04/27 06:07:01;;;;;;;12.55;8.43;;;;;;;7.45;66.25;101704.16;7391631;19;20035;-67
2022/04/27 06:09:36;;;;;;;10.70;7.63;;;;;;;7.53;66.17;101713.78;7390892;19;20011;-65
2022/04/27 06:12:07;;;;;;;10.50;7.88;;;;;;;7.61;65.53;101720.81;7393905;19;20015;-66
2022/04/27 06:14:36;;;;;;;10.27;8.07;;;;;;;7.71;65.15;101718.22;7395677;19;20034;-66
2022/04/27 06:17:08;;;;;;;9.98;7.90;;;;;;;7.81;64.89;101718.31;7400518;19;20010;-66
2022/04/27 06:19:36;;;;;;;9.95;7.55;;;;;;;7.92;64.59;101718.38;7400802;19;20015;-66
2022/04/27 06:22:04;;;;;;;11.40;7.43;;;;;;;8.03;64.43;101723.63;7400585;19;20022;-67
2022/04/27 06:24:32;;;;;;;14.90;8.00;;;;;;;8.13;64.11;101724.56;7398069;19;20022;-68
2022/04/27 06:27:00;;;;;;;12.85;8.05;;;;;;;8.23;64.00;101731.56;7398802;19;20026;-67
2022/04/27 06:29:29;;;;;;;11.88;7.00;;;;;;;8.34;63.67;101734.22;7397623;19;20360;-66
2022/04/27 06:31:57;;;;;;;11.88;6.97;;;;;;;8.43;62.97;101729.00;7400155;19;20468;-66
2022/04/27 06:34:27;;;;;;;10.50;6.85;;;;;;;8.53;62.23;101735.19;7397473;19;20022;-67
2022/04/27 06:36:56;;;;;;;15.48;7.63;;;;;;;8.62;62.25;101736.94;7400419;19;20018;-66
2022/04/27 06:39:24;;;;;;;9.32;6.63;;;;;;;8.72;61.63;101728.25;7396924;19;20015;-66
2022/04/27 06:41:52;;;;;;;11.90;7.00;;;;;;;8.83;61.50;101735.25;7400295;19;20027;-66
2022/04/27 06:44:20;;;;;;;10.18;6.63;;;;;;;8.90;60.88;101729.16;7399140;19;20015;-68
2022/04/27 06:46:48;;;;;;;9.10;6.95;;;;;;;9.01;60.62;101726.53;7397541;19;20007;-66
2022/04/27 06:49:16;;;;;;;14.05;6.70;;;;;;;9.10;60.54;101732.63;7400011;19;20035;-66
2022/04/27 06:51:54;;;;;;;9.60;5.88;;;;;;;9.20;58.99;101723.03;7397558;19;20022;-66
2022/04/27 06:54:22;;;;;;;10.52;6.25;;;;;;;9.31;59.07;101723.03;7399300;19;20147;-68
2022/04/27 06:56:50;;;;;;;11.10;6.88;;;;;;;9.38;58.30;101716.06;7397634;19;20011;-66
2022/04/27 06:59:18;;;;;;;8.13;6.32;;;;;;;9.51;58.00;101727.38;7396727;19;20481;-67
2022/04/27 07:01:47;;;;;;;10.73;6.30;;;;;;;9.63;57.54;101727.38;7396789;19;20455;-65
2022/04/27 07:04:15;;;;;;;10.38;6.13;;;;;;;9.74;57.40;101729.94;7398170;19;20019;-67
2022/04/27 07:06:43;;;;;;;8.68;6.15;;;;;;;9.85;56.74;101733.41;7397576;19;20022;-66
2022/04/27 07:09:14;;;;;;;9.70;5.85;;;;;;;9.94;56.46;101737.75;7397416;19;20028;-65
2022/04/27 07:11:44;;;;;;;8.95;6.03;;;;;;;10.02;56.27;101733.38;7397644;19;20078;-71
2022/04/27 07:14:15;;;;;;;9.35;5.97;;;;;;;10.11;55.61;101737.72;7396210;19;20478;-66
2022/04/27 07:16:44;;;;;;;8.30;5.97;;;;;;;10.22;55.14;101741.16;7396722;19;20018;-67
2022/04/27 07:19:12;;;;;;;8.07;6.13;;;;;;;10.32;54.55;101738.47;7396551;19;20035;-66
2022/04/27 07:21:41;;;;;;;9.30;5.50;;;;;;;10.41;53.85;101743.72;7399093;19;20014;-67
2022/04/27 07:24:09;;;;;;;16.25;6.35;;;;;;;10.51;53.33;101742.78;7397681;19;20376;-67
2022/04/27 07:26:40;;;;;;;12.05;5.60;;;;;;;10.62;52.91;101747.13;7395673;19;20424;-67
2022/04/27 07:29:09;;;;;;;9.73;5.13;;;;;;;10.73;51.90;101742.69;7399278;19;20031;-66
2022/04/27 07:31:37;;;;;;;6.78;5.30;;;;;;;10.81;51.67;101756.59;7398543;19;20074;-67
2022/04/27 07:34:05;;;;;;;12.00;6.30;;;;;;;10.89;51.46;101752.19;7397919;19;20022;-67
2022/04/27 07:36:33;;;;;;;10.77;5.43;;;;;;;10.98;50.99;101747.75;7398584;19;20014;-66
2022/04/27 07:39:01;;;;;;;8.70;5.60;;;;;;;11.05;50.98;101752.06;7395923;19;20231;-65
2022/04/27 07:41:29;;;;;;;8.65;5.45;;;;;;;11.14;50.09;101765.13;7395848;19;20023;-64
2022/04/27 07:44:00;;;;;;;8.43;5.55;;;;;;;11.21;48.44;101761.56;7395545;19;20043;-66
2022/04/27 07:46:28;;;;;;;8.02;5.47;;;;;;;11.27;48.86;101760.63;7397675;19;20358;-66
2022/04/27 07:48:56;;;;;;;10.13;6.15;;;;;;;11.32;49.01;101765.84;7398149;19;20018;-67
2022/04/27 07:51:24;;;;;;;8.63;5.43;;;;;;;11.38;49.03;101763.19;7395712;19;20010;-67
2022/04/27 07:53:52;;;;;;;8.30;5.50;;;;;;;11.44;48.66;101771.00;7396962;19;20043;-66
2022/04/27 07:56:21;;;;;;;9.88;5.82;;;;;;;11.49;47.78;101766.59;7397936;19;20018;-66
2022/04/27 07:58:49;;;;;;;9.18;5.28;;;;;;;11.56;47.92;101770.03;7395718;19;20095;-66
2022/04/27 08:01:20;;;;;;;5.15;4.03;;;;;;;11.62;46.40;101774.38;7395460;19;20026;-66
2022/04/27 08:03:48;;;;;;;7.15;5.28;;;;;;;11.70;47.26;101777.78;7396811;19;20410;-67
2022/04/27 08:06:16;;;;;;;5.85;4.45;;;;;;;11.76;47.16;101774.22;7394563;19;20032;-66
2022/04/27 08:08:44;;;;;;;6.90;4.40;;;;;;;11.84;46.89;101780.25;7395647;19;20015;-67
2022/04/27 08:11:13;;;;;;;6.80;4.72;;;;;;;11.90;45.88;101778.47;7394891;19;20022;-66
2022/04/27 08:13:41;;;;;;;7.28;4.32;;;;;;;11.96;46.34;101774.91;7395012;19;20070;-66
2022/04/27 08:16:10;;;;;;;6.88;4.60;;;;;;;12.03;46.49;101778.34;7396928;19;20022;-66
2022/04/27 08:18:41;;;;;;;7.80;4.28;;;;;;;12.09;46.46;101780.91;7397148;19;20019;-67
2022/04/27 08:21:21;;;;;;;5.80;3.83;;;;;;;12.19;45.74;101786.94;7397872;19;20014;-67
2022/04/27 08:23:50;;;;;;;9.02;4.80;;;;;;;12.26;45.13;101782.44;7395251;19;20019;-67
2022/04/27 08:26:19;;;;;;;5.78;4.22;;;;;;;12.32;44.57;101779.75;7394667;19;20035;-65
2022/04/27 08:28:48;;;;;;;7.13;4.43;;;;;;;12.36;44.25;101779.69;7396692;19;20423;-66
2022/04/27 08:31:20;;;;;;;5.95;4.57;;;;;;;12.44;44.28;101789.28;7396627;19;20133;-66
2022/04/27 08:33:51;;;;;;;7.65;3.92;;;;;;;12.52;43.45;101793.53;7396003;19;20073;-65
2022/04/27 08:36:19;;;;;;;6.20;4.05;;;;;;;12.60;43.78;101790.81;7392734;19;20018;-67
2022/04/27 08:38:47;;;;;;;7.10;3.28;;;;;;;12.68;43.48;101782.81;7395800;19;20492;-68
2022/04/27 08:41:16;;;;;;;5.85;4.30;;;;;;;12.76;42.88;101787.97;7396227;19;20018;-66
2022/04/27 08:43:45;;;;;;;6.97;4.30;;;;;;;12.81;42.53;101791.41;7394393;19;20018;-66
2022/04/27 08:46:16;;;;;;;6.57;3.58;;;;;;;12.87;42.59;101797.44;7395344;19;20485;-66
2022/04/27 08:48:51;;;;;;;4.38;3.50;;;;;;;12.94;42.38;101786.81;7396157;19;20489;-66
2022/04/27 08:51:19;;;;;;;4.60;3.63;;;;;;;12.99;42.05;101785.88;7395180;19;20019;-67
2022/04/27 08:53:47;;;;;;;5.40;3.60;;;;;;;13.07;40.67;101809.44;7394298;19;20022;-68
2022/04/27 08:56:16;;;;;;;5.55;3.70;;;;;;;13.14;40.97;101810.22;7394670;19;20018;-66
2022/04/27 08:58:45;;;;;;;6.97;3.88;;;;;;;13.18;41.02;101801.38;7396304;19;20014;-67
2022/04/27 09:01:13;;;;;;;8.57;4.15;;;;;;;13.22;40.84;101802.19;7394187;19;20027;-66
2022/04/27 09:03:44;;;;;;;6.35;3.55;;;;;;;13.26;40.90;101801.28;7395656;19;20027;-66
2022/04/27 09:06:18;;;;;;;6.43;4.22;;;;;;;13.31;40.54;101817.88;7395103;19;20023;-66
2022/04/27 09:08:48;;;;;;;5.57;4.70;;;;;;;13.38;40.24;101805.50;7394606;19;20078;-66
2022/04/27 09:11:21;;;;;;;4.78;3.90;;;;;;;13.43;39.92;101811.56;7393831;19;20038;-66
2022/04/27 09:13:51;;;;;;;5.93;3.83;;;;;;;13.49;40.33;101804.41;7393505;19;20011;-67
2022/04/27 09:16:21;;;;;;;6.13;4.10;;;;;;;13.57;40.45;101800.78;7395273;19;20463;-67
2022/04/27 09:21:59;;;;;;;8.10;3.95;;;;;;;13.78;39.63;101800.38;7395003;19;20007;-67
2022/04/27 09:24:29;;;;;;;7.93;4.30;;;;;;;13.92;40.35;101802.78;7394407;19;20090;-66
2022/04/27 09:27:03;;;;;;;5.22;4.57;;;;;;;14.00;38.50;101806.16;7393448;19;20382;-66
2022/04/27 09:29:32;;;;;;;6.10;3.90;;;;;;;14.05;39.05;101806.03;7395614;19;20019;-66
2022/04/27 09:32:03;;;;;;;5.03;4.43;;;;;;;14.09;38.61;101804.22;7393141;19;20019;-67
2022/04/27 09:34:32;;;;;;;6.18;3.53;;;;;;;14.10;37.54;101808.59;7393855;19;20081;-67
2022/04/27 09:37:18;;;;;;;5.57;3.75;;;;;;;14.09;36.75;101815.66;7392911;19;20019;-69
2022/04/27 09:39:47;;;;;;;3.65;3.20;;;;;;;14.07;37.74;101820.09;7395299;19;20014;-68
2022/04/27 09:42:16;;;;;;;6.63;3.70;;;;;;;14.05;37.72;101808.69;7394313;19;20382;-68
2022/04/27 09:44:45;;;;;;;4.70;3.67;;;;;;;14.05;38.01;101811.31;7392383;19;20024;-68
2022/04/27 09:47:13;;;;;;;5.70;3.78;;;;;;;14.05;37.76;101800.75;7392313;19;20634;-68
2022/04/27 09:49:46;;;;;;;4.97;3.65;;;;;;;14.06;37.90;101813.06;7406177;19;20034;-68
2022/04/27 09:52:18;;;;;;;4.32;3.75;;;;;;;14.10;37.92;101800.69;7406886;19;20015;-66
2022/04/27 09:54:48;;;;;;;4.82;3.60;;;;;;;14.12;37.82;101807.66;7406548;19;20015;-67
2022/04/27 09:57:18;;;;;;;6.32;3.65;;;;;;;14.18;38.14;101804.91;7406500;19;20022;-68
2022/04/27 09:59:47;;;;;;;5.10;3.85;;;;;;;14.24;38.31;101803.03;7408708;19;20022;-68
2022/04/27 10:02:25;;;;;;;7.30;4.40;;;;;;;14.26;37.63;101810.03;7408297;19;20356;-68
2022/04/27 10:04:56;;;;;;;5.18;4.68;;;;;;;14.29;38.00;101810.00;7407579;19;20031;-67
2022/04/27 10:07:30;;;;;;;5.97;4.25;;;;;;;14.31;37.89;101797.59;7406074;19;20394;-67
2022/04/27 10:09:59;;;;;;;5.30;3.83;;;;;;;14.36;38.04;101805.44;7405967;19;20342;-68
2022/04/27 10:12:27;;;;;;;7.03;4.40;;;;;;;14.38;37.91;101806.28;7408151;19;20042;-67
2022/04/27 10:14:57;;;;;;;6.45;3.67;;;;;;;14.44;37.97;101805.28;7405875;19;20018;-67
2022/04/27 10:17:25;;;;;;;7.53;4.03;;;;;;;14.50;37.25;101798.09;7405408;19;20014;-67
2022/04/27 10:19:53;;;;;;;7.90;4.05;;;;;;;14.54;37.51;101801.53;7405708;19;20031;-66
2022/04/27 10:22:32;;;;;;;5.70;4.05;;;;;;;14.56;36.60;101802.38;7407640;19;20506;-67
2022/04/27 10:25:06;;;;;;;5.18;3.92;;;;;;;14.63;37.46;101797.81;7405625;19;20469;-67
2022/04/27 10:27:39;;;;;;;4.53;3.97;;;;;;;14.64;36.18;101802.22;7404559;19;20493;-66
2022/04/27 10:30:10;;;;;;;7.35;4.63;;;;;;;14.66;37.01;101787.25;7407773;19;20031;-66
2022/04/27 10:32:43;;;;;;;6.93;4.10;;;;;;;14.67;36.35;101796.88;7408589;19;20010;-68
2022/04/27 10:35:27;;;;;;;4.35;3.88;;;;;;;14.69;37.04;101800.38;7405874;19;20018;-67
2022/04/27 10:37:59;;;;;;;4.73;3.97;;;;;;;14.75;37.16;101796.75;7405581;19;20017;-68
2022/04/27 10:40:29;;;;;;;6.95;4.20;;;;;;;14.80;36.69;101786.94;7409412;19;20066;-68
2022/04/27 10:43:10;;;;;;;5.68;3.80;;;;;;;14.88;36.85;101794.69;7406920;19;20014;-70
2022/04/27 10:45:40;;;;;;;5.93;3.92;;;;;;;14.99;37.18;101795.31;7404615;19;20464;-70
2022/04/27 10:48:09;;;;;;;4.75;3.97;;;;;;;15.09;35.37;101790.66;7405235;19;20022;-71
2022/04/27 10:50:38;;;;;;;8.23;4.68;;;;;;;15.13;34.73;101808.19;7407511;19;20035;-67
2022/04/27 10:53:23;;;;;;;3.97;3.55;;;;;;;15.17;34.65;101809.00;7407155;19;20021;-67
2022/04/27 10:55:56;;;;;;;5.03;4.05;;;;;;;15.21;35.60;101808.00;7407477;19;20022;-69
2022/04/27 10:58:28;;;;;;;7.53;3.92;;;;;;;15.24;35.08;101806.16;7407167;19;20014;-69
2022/04/27 11:01:20;;;;;;;5.20;4.32;;;;;;;15.31;34.47;101798.94;7399453;19;20014;-67
2022/04/27 11:04:00;;;;;;;5.55;3.83;;;;;;;15.37;34.69;101797.94;7396312;19;20502;-69
2022/04/27 11:06:30;;;;;;;4.80;3.08;;;;;;;15.44;35.29;101791.56;7399459;19;20021;-66
2022/04/27 11:09:18;;;;;;;8.10;3.78;;;;;;;15.53;33.98;101798.38;7396695;19;20014;-70
2022/04/27 11:11:54;;;;;;;4.75;3.40;;;;;;;15.67;33.87;101790.09;7396015;19;20031;-67
2022/04/27 11:14:24;;;;;;;4.10;3.70;;;;;;;15.72;33.54;101797.00;7397315;19;20094;-67
2022/04/27 11:16:52;;;;;;;5.13;3.47;;;;;;;15.70;34.34;101800.63;7399321;19;20022;-67
2022/04/27 11:19:21;;;;;;;5.40;3.50;;;;;;;15.71;34.50;101789.09;7397475;19;20029;-69
2022/04/27 11:21:50;;;;;;;5.75;4.28;;;;;;;15.71;34.55;101794.38;7398636;19;20479;-69
2022/04/27 11:24:23;;;;;;;6.10;4.15;;;;;;;15.70;34.74;101792.69;7397988;19;20018;-69
2022/04/27 11:26:51;;;;;;;4.75;3.78;;;;;;;15.80;34.77;101789.72;7395618;19;20019;-69
2022/04/27 11:29:20;;;;;;;3.83;3.42;;;;;;;15.89;34.35;101808.97;7398956;19;20022;-69
2022/04/27 11:31:48;;;;;;;4.65;3.30;;;;;;;15.95;34.58;101801.72;7396238;19;20018;-67
2022/04/27 11:34:24;;;;;;;5.97;4.03;;;;;;;15.96;33.92;101797.28;7394626;19;20350;-66
2022/04/27 11:36:53;;;;;;;5.93;4.20;;;;;;;15.91;34.45;101781.53;7396775;19;20374;-68
2022/04/27 11:39:25;;;;;;;7.63;3.92;;;;;;;15.96;34.75;101794.63;7398234;19;20015;-69
2022/04/27 11:42:07;;;;;;;6.30;3.25;;;;;;;16.05;34.51;101791.75;7398627;19;20018;-68
2022/04/27 11:44:35;;;;;;;4.68;3.58;;;;;;;16.07;34.00;101800.50;7395876;19;20035;-68
2022/04/27 11:47:03;;;;;;;4.03;3.58;;;;;;;16.09;34.34;101797.81;7397368;19;20018;-68
2022/04/27 11:49:31;;;;;;;4.25;3.42;;;;;;;16.04;34.09;101805.03;7396093;19;20022;-68
2022/04/27 11:51:59;;;;;;;4.45;3.63;;;;;;;16.04;34.14;101797.94;7396217;19;20026;-69
2022/04/27 11:54:32;;;;;;;7.72;3.75;;;;;;;16.09;33.53;101803.97;7397596;19;20035;-69